Anatone, Washington
Current Conditions -  °F | °C
As of 5:56 AM on Tuesday 27 Jan 2015 (Local Time) from KLWS Reporting Station
Clear Clear  
Wind Chill: 36°   Ceiling: Unl
Heat Index: 40°   Visibility: 10mi
Dew Point: 35°   Wind: 6mph
Humidity: 83%   Direction: 110°ESE
Pressure: 30.01"   Gusts: NA
Location:  46.13°N, 117.13°W
Report Text: KLWS 271356Z AUTO 11005KT 10SM CLR 04/02 A3001 RMK AO2 SLP166 T00440017
Loading
Personal Weather Stations






























Interactive Weather Map New forecast layout! Learn more

10-Day Weather Forecast

Advertisements
Track Severe Weather on mobile